Saltar para o conteúdo principal

Aljezur

ID 1210789 · 37.3168, -8.8000 mapa

Última leitura · 2026-05-09 19:00 (Europe/Lisbon)

Temperatura
18.4 °C
Humidade
71 %
Pressão
Precipitação
0.0 mm
Radiação
1,087 W/m²
Velocidade do vento
9.0 km/h
Direcção do vento
SW · Sudoeste

Histórico de 24 horas

Hora (Europe/Lisbon) Temperatura Humidade Pressão Chuva Vento Direcção
2026-05-09 19:00 18.4 °C 71 % 0.0 mm 9.0 km/h SW
2026-05-09 18:00 19.3 °C 69 % 0.0 mm 15.1 km/h SW
2026-05-09 17:00 19.3 °C 69 % 0.0 mm 13.3 km/h SW
2026-05-09 16:00 19.9 °C 68 % 0.0 mm 18.7 km/h SW
2026-05-09 15:00 19.9 °C 71 % 0.0 mm 18.7 km/h SW
2026-05-09 14:00 19.5 °C 70 % 0.0 mm 18.0 km/h SW
2026-05-09 13:00 18.6 °C 69 % 0.1 mm 15.1 km/h SW
2026-05-09 12:00 18.5 °C 70 % 0.0 mm 18.0 km/h SW
2026-05-09 11:00 17.4 °C 77 % 0.0 mm 13.3 km/h SW
2026-05-09 10:00 16.3 °C 87 % 0.0 mm 11.2 km/h SW
2026-05-09 09:00 14.9 °C 97 % 0.0 mm 6.8 km/h SW
2026-05-09 08:00 14.0 °C 97 % 0.1 mm 1.1 km/h SW
2026-05-09 07:00 13.9 °C 95 % 2.2 mm 2.2 km/h NE
2026-05-09 06:00 14.7 °C 94 % 2.4 mm 4.3 km/h SW
2026-05-09 05:00 14.1 °C 95 % 4.6 mm 5.8 km/h SW
2026-05-09 04:00 14.4 °C 95 % 2.0 mm 3.2 km/h SE
2026-05-09 03:00 14.7 °C 93 % 0.0 mm 3.6 km/h W
2026-05-09 02:00 14.4 °C 93 % 0.0 mm 7.2 km/h SE
2026-05-09 01:00 14.0 °C 93 % 0.0 mm 6.5 km/h SE
2026-05-09 00:00 13.4 °C 94 % 0.0 mm 3.2 km/h SE
2026-05-08 23:00 13.3 °C 93 % 0.0 mm 6.5 km/h SW
2026-05-08 22:00 13.2 °C 91 % 1.9 mm 5.0 km/h S
2026-05-08 21:00 14.2 °C 88 % 4.2 mm 8.3 km/h SE
2026-05-08 20:00 16.9 °C 79 % 0.0 mm 6.8 km/h SE